Time;durP1;ratioP1;P1;durP2;ratioP2;P2;SDS_P1;SDS_P2;PMS_P1;PMS_P2;Temp;Humidity;BMP_temperature;BMP_pressure;BME280_temperature;BME280_humidity;BME280_pressure;Samples;Min_cycle;Max_cycle;Signal;HPM_P1;HPM_P2
2023/12/02 00:00:31;;;;;;;24.83;14.38;;;0.10;99.90;;;;;;5045536;28;20605;-80
2023/12/02 00:02:57;;;;;;;26.15;14.82;;;0.10;99.90;;;;;;5053236;28;20049;-80
2023/12/02 00:05:23;;;;;;;24.42;13.73;;;0.10;99.90;;;;;;5036731;28;20440;-80
2023/12/02 00:07:48;;;;;;;23.20;14.00;;;0.10;99.90;;;;;;5035504;28;20048;-81
2023/12/02 00:10:14;;;;;;;23.13;12.57;;;0.10;99.90;;;;;;5048763;28;20047;-80
2023/12/02 00:12:40;;;;;;;26.00;13.45;;;0.10;99.90;;;;;;5050992;28;20060;-80
2023/12/02 00:15:07;;;;;;;23.77;12.77;;;0.10;99.90;;;;;;5024532;28;20036;-81
2023/12/02 00:17:33;;;;;;;25.30;13.68;;;0.10;99.90;;;;;;5051814;28;20036;-80
2023/12/02 00:19:58;;;;;;;24.48;13.57;;;0.10;99.90;;;;;;5052993;28;20037;-80
2023/12/02 00:22:24;;;;;;;23.75;12.98;;;0.10;99.90;;;;;;5033898;28;20406;-80
2023/12/02 00:24:50;;;;;;;22.20;13.27;;;0.10;99.90;;;;;;5016472;28;20037;-80
2023/12/02 00:27:17;;;;;;;25.27;14.00;;;0.10;99.90;;;;;;5032128;28;20044;-80
2023/12/02 00:29:43;;;;;;;24.15;13.68;;;0.10;99.90;;;;;;5052895;28;20041;-81
2023/12/02 00:32:09;;;;;;;25.17;13.80;;;0.10;99.90;;;;;;5049292;28;20116;-80
2023/12/02 00:34:35;;;;;;;24.83;13.80;;;0.10;99.90;;;;;;5035817;28;20132;-80
2023/12/02 00:37:00;;;;;;;22.98;13.07;;;0.10;99.90;;;;;;5035929;28;20552;-80
2023/12/02 00:39:27;;;;;;;27.08;14.40;;;0.10;99.90;;;;;;5052288;28;20119;-81
2023/12/02 00:41:53;;;;;;;25.52;13.90;;;0.10;99.90;;;;;;5037886;28;20172;-80
2023/12/02 00:44:19;;;;;;;25.20;13.93;;;0.10;99.90;;;;;;5016591;28;20136;-80
2023/12/02 00:46:45;;;;;;;24.15;13.85;;;0.10;99.90;;;;;;5034191;28;20048;-80
2023/12/02 00:49:11;;;;;;;26.17;15.00;;;0.10;99.90;;;;;;5020429;28;20508;-80
2023/12/02 00:51:37;;;;;;;26.58;15.18;;;0.00;99.90;;;;;;5043338;28;20037;-81
2023/12/02 00:54:02;;;;;;;25.08;13.45;;;0.00;99.90;;;;;;5032560;28;20052;-81
2023/12/02 00:56:28;;;;;;;25.85;14.82;;;0.00;99.90;;;;;;5042776;28;20041;-80
2023/12/02 00:58:53;;;;;;;27.35;14.43;;;0.00;99.90;;;;;;5037414;28;20132;-80
2023/12/02 01:01:19;;;;;;;27.15;14.48;;;0.10;99.90;;;;;;5034615;28;20118;-80
2023/12/02 01:03:45;;;;;;;25.45;14.63;;;0.10;99.90;;;;;;5052072;28;20098;-80
2023/12/02 01:06:11;;;;;;;25.80;15.30;;;0.10;99.90;;;;;;5051421;28;20044;-80
2023/12/02 01:08:37;;;;;;;25.08;14.13;;;0.10;99.90;;;;;;5051472;28;20041;-81
2023/12/02 01:11:02;;;;;;;26.73;15.63;;;0.00;99.90;;;;;;5040147;28;20080;-81
2023/12/02 01:13:28;;;;;;;25.55;14.50;;;0.10;99.90;;;;;;5015867;28;20033;-81
2023/12/02 01:15:54;;;;;;;27.33;15.45;;;0.10;99.90;;;;;;5032043;28;20041;-81
2023/12/02 01:18:19;;;;;;;26.02;13.90;;;0.10;99.90;;;;;;5035728;28;20103;-81
2023/12/02 01:20:45;;;;;;;25.42;15.07;;;0.10;99.90;;;;;;5033870;28;20045;-81
2023/12/02 01:23:11;;;;;;;26.98;15.15;;;0.10;99.90;;;;;;5051829;28;20428;-81
2023/12/02 01:25:37;;;;;;;23.60;14.50;;;0.10;99.90;;;;;;5051116;28;20044;-81
2023/12/02 01:28:03;;;;;;;29.70;15.88;;;0.00;99.90;;;;;;5052032;28;20041;-81
2023/12/02 01:30:29;;;;;;;26.38;14.68;;;0.10;99.90;;;;;;5015956;28;20037;-80
2023/12/02 01:32:54;;;;;;;25.42;14.18;;;0.10;99.90;;;;;;5048594;28;20034;-81
2023/12/02 01:35:20;;;;;;;30.58;16.85;;;0.10;99.90;;;;;;5033017;28;20409;-81
2023/12/02 01:37:46;;;;;;;27.48;15.68;;;0.10;99.90;;;;;;5034973;28;20091;-81
2023/12/02 01:40:12;;;;;;;29.23;15.65;;;0.10;99.90;;;;;;5034670;28;20048;-81
2023/12/02 01:42:38;;;;;;;26.88;15.02;;;0.10;99.90;;;;;;5050742;28;20041;-81
2023/12/02 01:45:05;;;;;;;28.88;16.20;;;0.10;99.90;;;;;;5050828;28;20047;-81
2023/12/02 01:47:30;;;;;;;25.20;14.65;;;0.20;99.90;;;;;;5051678;28;20489;-81
2023/12/02 01:49:59;;;;;;;26.88;15.88;;;0.20;99.90;;;;;;5041379;28;20046;-81
2023/12/02 01:52:24;;;;;;;25.35;14.98;;;0.20;99.90;;;;;;5049514;28;20385;-81
2023/12/02 01:54:50;;;;;;;26.67;14.82;;;0.20;99.90;;;;;;5031690;28;20124;-81
2023/12/02 01:57:16;;;;;;;29.52;16.45;;;0.20;99.90;;;;;;5049074;28;20069;-81
2023/12/02 01:59:51;;;;;;;25.33;14.88;;;0.20;99.90;;;;;;5029556;28;20486;-81
2023/12/02 02:02:17;;;;;;;25.27;15.45;;;0.20;99.90;;;;;;5021019;28;20025;-81
2023/12/02 02:04:43;;;;;;;29.33;15.38;;;0.10;99.90;;;;;;5035106;28;20045;-80
2023/12/02 02:07:08;;;;;;;27.35;15.82;;;0.10;99.90;;;;;;5049123;28;20044;-81
2023/12/02 02:09:34;;;;;;;25.15;15.05;;;0.20;99.90;;;;;;5050342;28;20040;-80
2023/12/02 02:12:01;;;;;;;26.08;15.45;;;0.20;99.90;;;;;;5033801;28;20370;-80
2023/12/02 02:14:26;;;;;;;26.40;15.98;;;0.20;99.90;;;;;;5051380;28;20048;-81
2023/12/02 02:16:52;;;;;;;24.83;14.25;;;0.20;99.90;;;;;;5050595;28;20428;-81
2023/12/02 02:19:18;;;;;;;28.83;16.42;;;0.20;99.90;;;;;;5034780;28;20041;-81
2023/12/02 02:21:44;;;;;;;28.55;16.10;;;0.20;99.90;;;;;;5034619;28;20494;-81
2023/12/02 02:24:10;;;;;;;27.73;15.57;;;0.10;99.90;;;;;;5063366;28;20083;-81
2023/12/02 02:26:35;;;;;;;27.55;15.48;;;0.10;99.90;;;;;;5033902;28;20094;-81
2023/12/02 02:29:01;;;;;;;25.55;14.32;;;0.10;99.90;;;;;;5032178;28;20056;-81
2023/12/02 02:31:26;;;;;;;25.85;15.70;;;0.10;99.90;;;;;;5049306;28;20426;-81
2023/12/02 02:33:52;;;;;;;28.20;15.55;;;0.10;99.90;;;;;;5052403;28;20052;-81
2023/12/02 02:36:18;;;;;;;27.55;15.35;;;0.10;99.90;;;;;;5054820;28;20033;-80
2023/12/02 02:38:43;;;;;;;27.35;16.10;;;0.20;99.90;;;;;;5054826;28;20063;-81
2023/12/02 02:41:09;;;;;;;26.35;14.93;;;0.30;99.90;;;;;;5054108;28;20033;-81
2023/12/02 02:43:35;;;;;;;26.45;15.27;;;0.30;99.90;;;;;;5047928;28;20385;-81
2023/12/02 02:46:01;;;;;;;27.98;15.25;;;0.30;99.90;;;;;;5053131;28;20108;-80
2023/12/02 02:48:27;;;;;;;28.17;16.00;;;0.20;99.90;;;;;;5037937;28;20040;-81
2023/12/02 02:50:52;;;;;;;26.83;15.30;;;0.20;99.90;;;;;;5050162;28;20061;-80
2023/12/02 02:53:18;;;;;;;25.73;15.27;;;0.20;99.90;;;;;;5042469;28;20029;-80
2023/12/02 02:55:45;;;;;;;28.10;15.85;;;0.20;99.90;;;;;;5054079;28;20037;-81
2023/12/02 02:58:11;;;;;;;28.05;15.70;;;0.10;99.90;;;;;;5037774;28;20048;-81
2023/12/02 03:00:36;;;;;;;29.30;16.33;;;0.10;99.90;;;;;;5042404;28;20045;-80
2023/12/02 03:03:03;;;;;;;28.08;16.30;;;0.10;99.90;;;;;;5069838;28;20045;-81
2023/12/02 03:05:28;;;;;;;28.17;15.85;;;0.10;99.90;;;;;;5030342;28;20564;-81
2023/12/02 03:07:54;;;;;;;28.08;16.27;;;0.10;99.90;;;;;;5051203;28;20109;-81
2023/12/02 03:10:21;;;;;;;29.10;15.85;;;0.10;99.90;;;;;;5052079;28;20099;-81
2023/12/02 03:12:46;;;;;;;25.83;14.85;;;0.10;99.90;;;;;;5070820;28;20040;-81
2023/12/02 03:15:12;;;;;;;26.75;16.83;;;0.20;99.90;;;;;;5044232;28;20029;-81
2023/12/02 03:17:38;;;;;;;25.98;14.82;;;0.20;99.90;;;;;;5033981;28;20544;-81
2023/12/02 03:20:06;;;;;;;29.23;16.33;;;0.20;99.90;;;;;;5061923;28;20059;-81
2023/12/02 03:22:31;;;;;;;28.90;15.95;;;0.20;99.90;;;;;;5037601;28;20041;-81
2023/12/02 03:24:57;;;;;;;25.73;14.82;;;0.30;99.90;;;;;;5053173;28;20044;-81
2023/12/02 03:27:22;;;;;;;27.88;16.58;;;0.30;99.90;;;;;;5036553;28;20083;-81
2023/12/02 03:29:48;;;;;;;26.05;15.77;;;0.30;99.90;;;;;;5037463;28;20041;-81
2023/12/02 03:32:14;;;;;;;26.67;15.10;;;0.30;99.90;;;;;;5053710;28;20069;-81
2023/12/02 03:34:39;;;;;;;27.75;15.55;;;0.30;99.90;;;;;;5070405;28;20033;-81
2023/12/02 03:37:05;;;;;;;25.00;14.68;;;0.30;99.90;;;;;;5035155;28;20079;-81
2023/12/02 03:39:31;;;;;;;24.55;14.38;;;0.30;99.90;;;;;;5053644;28;20036;-81
2023/12/02 03:41:57;;;;;;;25.40;15.23;;;0.30;99.90;;;;;;5052930;28;20048;-81
2023/12/02 03:44:22;;;;;;;25.42;14.23;;;0.40;99.90;;;;;;5052035;28;20033;-81
2023/12/02 03:46:48;;;;;;;24.92;14.52;;;0.30;99.90;;;;;;5052118;28;20040;-81
2023/12/02 03:49:14;;;;;;;25.73;15.15;;;0.30;99.90;;;;;;5050434;28;20044;-81
2023/12/02 03:51:39;;;;;;;25.90;14.90;;;0.30;99.90;;;;;;5050053;28;20045;-81
2023/12/02 03:54:05;;;;;;;24.70;14.45;;;0.30;99.90;;;;;;5016986;28;20123;-81
2023/12/02 03:56:30;;;;;;;25.20;14.40;;;0.30;99.90;;;;;;5059331;28;20052;-81
2023/12/02 03:58:56;;;;;;;24.77;14.32;;;0.30;99.90;;;;;;5053333;28;20132;-81
2023/12/02 04:01:22;;;;;;;22.33;14.27;;;0.30;99.90;;;;;;5053531;28;20485;-81
2023/12/02 04:03:48;;;;;;;26.70;14.93;;;0.30;99.90;;;;;;5036793;28;20098;-81
2023/12/02 04:06:13;;;;;;;24.08;14.35;;;0.30;99.90;;;;;;5048682;28;20049;-81
2023/12/02 04:08:39;;;;;;;24.05;13.70;;;0.20;99.90;;;;;;5016767;28;20116;-81
2023/12/02 04:11:06;;;;;;;25.75;14.10;;;0.30;99.90;;;;;;5042395;28;20051;-81
2023/12/02 04:13:33;;;;;;;23.00;13.63;;;0.20;99.90;;;;;;5053242;28;20142;-81
2023/12/02 04:15:59;;;;;;;22.75;14.18;;;0.30;99.90;;;;;;5068980;28;20029;-81
2023/12/02 04:18:24;;;;;;;21.48;13.48;;;0.30;99.90;;;;;;5068372;28;20067;-81
2023/12/02 04:20:50;;;;;;;22.58;13.32;;;0.20;99.90;;;;;;5069705;28;20496;-81
2023/12/02 04:23:15;;;;;;;24.05;14.80;;;0.20;99.90;;;;;;5069681;28;20052;-81
2023/12/02 04:25:41;;;;;;;26.42;15.25;;;0.20;99.90;;;;;;5035502;28;20044;-81
2023/12/02 04:28:09;;;;;;;22.80;13.93;;;0.30;99.90;;;;;;5051265;28;20040;-81
2023/12/02 04:30:35;;;;;;;24.70;14.27;;;0.30;99.90;;;;;;5024886;28;20041;-81
2023/12/02 04:33:01;;;;;;;24.73;13.88;;;0.20;99.90;;;;;;5016256;28;20076;-81
2023/12/02 04:35:26;;;;;;;24.98;15.32;;;0.20;99.90;;;;;;5016298;28;20038;-81
2023/12/02 04:37:52;;;;;;;25.88;14.65;;;0.20;99.90;;;;;;5056165;28;20401;-81
2023/12/02 04:40:18;;;;;;;25.52;14.75;;;0.20;99.90;;;;;;5052740;28;20049;-81
2023/12/02 04:42:43;;;;;;;25.33;13.93;;;0.30;99.90;;;;;;5050577;28;20049;-81
2023/12/02 04:45:09;;;;;;;24.27;14.05;;;0.20;99.90;;;;;;5046455;28;20029;-81
2023/12/02 04:47:38;;;;;;;21.02;12.15;;;0.20;99.90;;;;;;5022488;28;20452;-81
2023/12/02 04:50:05;;;;;;;24.23;15.00;;;0.30;99.90;;;;;;5034510;28;20558;-81
2023/12/02 04:52:32;;;;;;;25.40;14.50;;;0.20;99.90;;;;;;5050811;28;20489;-81
2023/12/02 04:54:58;;;;;;;23.90;13.45;;;0.20;99.90;;;;;;5047766;28;20035;-81
2023/12/02 04:57:24;;;;;;;24.13;14.27;;;0.10;99.90;;;;;;5049592;28;20072;-81
2023/12/02 04:59:50;;;;;;;22.83;13.15;;;0.20;99.90;;;;;;5035444;28;20485;-81
2023/12/02 05:02:18;;;;;;;24.33;14.57;;;0.20;99.90;;;;;;5055518;28;20087;-81
2023/12/02 05:04:44;;;;;;;23.65;14.63;;;0.20;99.90;;;;;;5028208;28;20045;-81
2023/12/02 05:07:11;;;;;;;23.30;13.20;;;0.20;99.90;;;;;;5045091;28;20042;-81
2023/12/02 05:09:37;;;;;;;22.00;13.70;;;0.20;99.90;;;;;;5025934;28;20046;-81
2023/12/02 05:12:03;;;;;;;23.55;13.02;;;0.30;99.90;;;;;;5032576;28;20467;-81
2023/12/02 05:14:28;;;;;;;24.15;12.85;;;0.30;99.90;;;;;;5050714;28;20494;-81
2023/12/02 05:16:54;;;;;;;23.25;13.70;;;0.30;99.90;;;;;;5051252;28;20064;-81
2023/12/02 05:19:20;;;;;;;23.33;13.25;;;0.30;99.90;;;;;;5048630;28;20111;-81
2023/12/02 05:21:45;;;;;;;23.30;13.77;;;0.20;99.90;;;;;;5035517;28;20453;-81
2023/12/02 05:24:11;;;;;;;22.00;13.43;;;0.20;99.90;;;;;;5051040;28;20044;-81
2023/12/02 05:26:36;;;;;;;23.77;14.00;;;0.20;99.90;;;;;;5040190;28;20129;-80
2023/12/02 05:29:03;;;;;;;22.80;13.02;;;0.10;99.90;;;;;;5035184;28;20072;-81
2023/12/02 05:31:31;;;;;;;21.98;12.73;;;0.10;99.90;;;;;;5066520;28;20124;-81
2023/12/02 05:33:58;;;;;;;20.67;11.85;;;0.10;99.90;;;;;;5051776;28;20125;-81
2023/12/02 05:36:23;;;;;;;20.35;12.52;;;0.20;99.90;;;;;;5049966;28;20037;-81
2023/12/02 05:38:49;;;;;;;20.73;12.98;;;0.20;99.90;;;;;;5034021;28;20037;-81
2023/12/02 05:41:15;;;;;;;24.63;13.52;;;0.20;99.90;;;;;;5034312;28;20037;-81
2023/12/02 05:43:40;;;;;;;21.30;12.45;;;0.10;99.90;;;;;;5034407;28;20049;-81
2023/12/02 05:46:06;;;;;;;22.70;13.73;;;0.10;99.90;;;;;;5049209;28;20064;-81
2023/12/02 05:48:32;;;;;;;22.63;12.77;;;0.10;99.90;;;;;;5050562;28;20037;-81
2023/12/02 05:51:01;;;;;;;24.38;12.52;;;0.10;99.90;;;;;;5036870;28;20064;-81
2023/12/02 05:53:27;;;;;;;20.60;13.05;;;0.10;99.90;;;;;;5035149;28;20037;-81
2023/12/02 05:55:52;;;;;;;21.67;12.73;;;0.10;99.90;;;;;;5033612;28;20029;-81
2023/12/02 05:58:18;;;;;;;22.60;12.80;;;0.10;99.90;;;;;;5031980;28;20037;-80
2023/12/02 06:00:44;;;;;;;23.55;13.73;;;0.10;99.90;;;;;;5041532;28;20464;-81
2023/12/02 06:03:09;;;;;;;21.17;12.63;;;0.10;99.90;;;;;;5024865;28;20068;-81
2023/12/02 06:05:35;;;;;;;21.42;12.85;;;0.00;99.90;;;;;;5050827;28;20114;-81
2023/12/02 06:08:01;;;;;;;23.40;12.55;;;0.00;99.90;;;;;;5042967;28;20045;-81
2023/12/02 06:10:26;;;;;;;21.65;12.82;;;0.00;99.90;;;;;;5064130;28;20114;-81
2023/12/02 06:12:52;;;;;;;20.42;12.63;;;0.00;99.90;;;;;;5053780;28;20532;-81
2023/12/02 06:15:18;;;;;;;23.02;13.85;;;0.00;99.90;;;;;;5032829;28;20036;-81
2023/12/02 06:17:44;;;;;;;23.45;12.85;;;0.00;99.90;;;;;;5037581;28;20558;-81
2023/12/02 06:20:11;;;;;;;21.98;12.98;;;0.00;99.90;;;;;;5038721;28;20037;-81
2023/12/02 06:22:36;;;;;;;23.38;13.57;;;0.00;99.90;;;;;;5036867;28;20120;-81
2023/12/02 06:25:02;;;;;;;20.88;12.90;;;0.00;99.90;;;;;;5055060;28;20128;-81
2023/12/02 06:27:28;;;;;;;20.80;11.60;;;-0.10;99.90;;;;;;5053053;28;20119;-81
2023/12/02 06:29:54;;;;;;;18.05;10.93;;;-0.10;99.90;;;;;;5054070;28;20490;-81
2023/12/02 06:32:19;;;;;;;23.13;13.50;;;0.00;99.90;;;;;;5037518;28;20040;-81
2023/12/02 06:34:45;;;;;;;23.88;14.25;;;0.00;99.90;;;;;;5056293;28;20045;-81
2023/12/02 06:37:11;;;;;;;21.30;12.90;;;-0.10;99.90;;;;;;5018758;28;20482;-81
2023/12/02 06:39:36;;;;;;;22.40;13.25;;;-0.10;99.90;;;;;;5046322;28;20095;-81
2023/12/02 06:42:02;;;;;;;22.48;13.45;;;-0.10;99.90;;;;;;5029910;28;20041;-81
2023/12/02 06:44:28;;;;;;;22.55;12.63;;;-0.20;99.90;;;;;;5038073;28;20041;-81
2023/12/02 06:46:53;;;;;;;23.90;14.07;;;-0.20;99.90;;;;;;5053173;28;20040;-81
2023/12/02 06:49:19;;;;;;;24.05;14.40;;;-0.20;99.90;;;;;;5052856;28;20485;-80
2023/12/02 06:51:44;;;;;;;23.90;14.18;;;-0.10;99.90;;;;;;5040620;28;20049;-81
2023/12/02 06:54:10;;;;;;;24.60;13.80;;;-0.10;99.90;;;;;;5052373;28;20033;-80
2023/12/02 06:56:36;;;;;;;23.10;13.80;;;-0.10;99.90;;;;;;5040356;28;20029;-81
2023/12/02 06:59:02;;;;;;;25.95;14.73;;;-0.10;99.90;;;;;;5053514;28;20084;-81
2023/12/02 07:01:30;;;;;;;23.45;13.38;;;-0.20;99.90;;;;;;5057833;28;20540;-81
2023/12/02 07:03:58;;;;;;;25.08;14.90;;;-0.30;99.90;;;;;;5051146;28;20120;-81
2023/12/02 07:06:24;;;;;;;25.60;14.60;;;-0.30;99.90;;;;;;5031022;28;20080;-81
2023/12/02 07:08:51;;;;;;;26.20;15.93;;;-0.30;99.90;;;;;;5054201;28;20040;-81
2023/12/02 07:11:17;;;;;;;24.80;13.38;;;-0.30;99.90;;;;;;5033761;28;20072;-81
2023/12/02 07:13:43;;;;;;;27.80;14.93;;;-0.40;99.90;;;;;;5037531;28;20048;-81
2023/12/02 07:16:09;;;;;;;27.40;15.32;;;-0.30;99.90;;;;;;5036710;28;20075;-80
2023/12/02 07:18:35;;;;;;;26.52;14.38;;;-0.40;99.90;;;;;;5052638;28;20437;-81
2023/12/02 07:21:01;;;;;;;28.02;15.07;;;-0.30;99.90;;;;;;5046756;28;20045;-81
2023/12/02 07:23:28;;;;;;;27.15;14.48;;;-0.30;99.90;;;;;;5037209;28;20040;-81
2023/12/02 07:25:55;;;;;;;25.92;14.60;;;-0.30;99.90;;;;;;5035153;28;20048;-81
2023/12/02 07:28:20;;;;;;;29.65;14.95;;;-0.30;99.90;;;;;;5058195;28;20045;-80
2023/12/02 07:30:48;;;;;;;25.00;15.13;;;-0.20;99.90;;;;;;5049809;28;20041;-81
2023/12/02 07:33:14;;;;;;;26.33;13.98;;;-0.20;99.90;;;;;;5021441;28;20029;-81
2023/12/02 07:35:39;;;;;;;24.45;13.23;;;-0.20;99.90;;;;;;5051740;28;20124;-80
2023/12/02 07:38:05;;;;;;;29.52;14.85;;;-0.20;99.90;;;;;;5010700;28;20056;-82
2023/12/02 07:40:31;;;;;;;26.92;14.27;;;-0.20;99.90;;;;;;5027956;28;20045;-80
2023/12/02 07:42:56;;;;;;;27.02;15.60;;;-0.10;99.90;;;;;;5029876;28;20507;-81
2023/12/02 07:45:22;;;;;;;26.50;14.73;;;-0.10;99.90;;;;;;5027495;28;20126;-81
2023/12/02 07:47:47;;;;;;;24.33;14.45;;;-0.10;99.90;;;;;;5029853;28;20029;-81
2023/12/02 07:50:13;;;;;;;25.00;13.20;;;-0.10;99.90;;;;;;5038948;28;20441;-81
2023/12/02 07:52:39;;;;;;;22.15;13.00;;;-0.10;99.90;;;;;;5027813;28;20084;-81
2023/12/02 07:55:05;;;;;;;25.67;14.85;;;0.00;99.90;;;;;;5032373;28;20424;-81
2023/12/02 07:57:30;;;;;;;25.83;14.60;;;0.00;99.90;;;;;;5054470;28;20375;-81
2023/12/02 07:59:56;;;;;;;28.52;15.80;;;0.00;99.90;;;;;;5013894;28;20346;-81
2023/12/02 08:02:22;;;;;;;28.23;15.68;;;-0.10;99.90;;;;;;5008502;28;20049;-81
2023/12/02 08:04:47;;;;;;;24.23;13.52;;;-0.20;99.90;;;;;;5034805;28;20457;-81
2023/12/02 08:07:13;;;;;;;27.42;16.05;;;-0.20;99.90;;;;;;5033349;28;20033;-81
2023/12/02 08:09:39;;;;;;;29.20;15.60;;;-0.20;99.90;;;;;;5047937;28;20481;-81
2023/12/02 08:12:05;;;;;;;28.20;14.70;;;-0.20;99.90;;;;;;5032633;28;20628;-81
2023/12/02 08:14:30;;;;;;;29.20;15.75;;;-0.20;99.90;;;;;;5039918;28;20120;-81
2023/12/02 08:16:56;;;;;;;27.45;15.68;;;-0.20;99.90;;;;;;5014918;28;20719;-81
2023/12/02 08:19:22;;;;;;;29.35;16.00;;;-0.20;99.90;;;;;;5033713;28;20599;-81
2023/12/02 08:21:48;;;;;;;27.00;14.98;;;-0.20;99.90;;;;;;5021023;28;20041;-80
2023/12/02 08:24:13;;;;;;;29.10;15.30;;;-0.20;99.90;;;;;;5025095;28;20044;-80
2023/12/02 08:26:39;;;;;;;27.75;15.00;;;-0.20;99.90;;;;;;5046778;28;20040;-81
2023/12/02 08:29:04;;;;;;;30.15;16.48;;;-0.10;99.90;;;;;;5035280;28;20464;-81
2023/12/02 08:31:32;;;;;;;28.38;16.30;;;-0.10;99.90;;;;;;5048281;28;20033;-81
2023/12/02 08:33:57;;;;;;;27.50;15.40;;;-0.10;99.90;;;;;;5046533;28;20047;-81
2023/12/02 08:36:23;;;;;;;28.85;15.73;;;-0.10;99.90;;;;;;5026070;28;20032;-80
2023/12/02 08:38:49;;;;;;;28.52;15.23;;;-0.20;99.90;;;;;;5046171;28;20037;-81
2023/12/02 08:41:15;;;;;;;29.48;15.95;;;-0.10;99.90;;;;;;5047790;28;20544;-81
2023/12/02 08:43:43;;;;;;;28.88;16.00;;;-0.10;99.90;;;;;;5051364;28;20036;-81
2023/12/02 08:46:17;;;;;;;28.08;15.35;;;-0.10;99.90;;;;;;5038327;28;20540;-81
2023/12/02 08:48:43;;;;;;;27.83;15.57;;;-0.10;99.90;;;;;;5019226;28;20523;-81
2023/12/02 08:51:09;;;;;;;27.77;15.80;;;-0.10;99.90;;;;;;5012218;28;20099;-81
2023/12/02 08:53:35;;;;;;;28.85;15.85;;;-0.10;99.90;;;;;;5044451;28;20037;-81
2023/12/02 08:56:01;;;;;;;29.88;15.52;;;0.00;99.90;;;;;;5054256;28;20456;-81
2023/12/02 08:58:26;;;;;;;27.33;14.82;;;0.00;99.90;;;;;;5043761;28;20401;-81
2023/12/02 09:00:52;;;;;;;28.92;15.10;;;0.00;99.90;;;;;;5034156;28;20041;-80
2023/12/02 09:03:18;;;;;;;29.52;15.48;;;0.10;99.90;;;;;;5027544;28;20041;-81
2023/12/02 09:05:44;;;;;;;29.85;15.88;;;0.10;99.90;;;;;;5053168;28;20052;-81
2023/12/02 09:08:10;;;;;;;37.00;15.63;;;0.20;99.90;;;;;;5025214;28;20652;-81
2023/12/02 09:10:36;;;;;;;31.15;15.60;;;0.20;99.90;;;;;;5030882;28;20619;-81
2023/12/02 09:13:12;;;;;;;28.27;15.55;;;0.20;99.90;;;;;;5012042;28;20179;-81
2023/12/02 09:15:40;;;;;;;28.15;15.00;;;0.30;99.90;;;;;;5010340;28;20037;-81
2023/12/02 09:18:09;;;;;;;28.10;15.65;;;0.30;99.90;;;;;;5031102;28;20074;-81
2023/12/02 09:20:43;;;;;;;26.30;16.02;;;0.30;99.90;;;;;;5017009;28;20424;-81
2023/12/02 09:23:10;;;;;;;29.73;16.05;;;0.30;99.90;;;;;;5024767;28;20052;-81
2023/12/02 09:25:38;;;;;;;27.50;15.20;;;0.30;99.90;;;;;;5020206;28;20045;-81
2023/12/02 09:28:07;;;;;;;28.70;15.57;;;0.30;99.90;;;;;;5050020;28;20084;-81
2023/12/02 09:30:33;;;;;;;29.23;16.27;;;0.40;99.90;;;;;;5020825;28;20048;-80
2023/12/02 09:32:59;;;;;;;32.28;16.95;;;0.30;99.90;;;;;;5051908;28;20033;-81
2023/12/02 09:35:26;;;;;;;28.98;16.30;;;0.30;99.90;;;;;;5037960;28;20072;-80
2023/12/02 09:37:51;;;;;;;28.30;15.05;;;0.30;99.90;;;;;;5025433;28;20059;-81
2023/12/02 09:40:23;;;;;;;27.48;15.43;;;0.30;99.90;;;;;;5012946;28;20045;-81
2023/12/02 09:43:09;;;;;;;31.88;17.20;;;0.40;99.90;;;;;;5021494;28;20042;-81
2023/12/02 09:46:00;;;;;;;31.75;16.30;;;0.50;99.90;;;;;;5044767;28;20420;-81
2023/12/02 09:48:30;;;;;;;30.52;14.88;;;0.50;99.90;;;;;;5012387;28;20064;-81
2023/12/02 09:51:28;;;;;;;30.20;15.82;;;0.50;99.90;;;;;;5054274;28;20049;-81
2023/12/02 09:53:56;;;;;;;27.17;15.30;;;0.50;99.90;;;;;;5023245;28;20045;-81
2023/12/02 09:56:37;;;;;;;31.02;16.60;;;0.60;99.90;;;;;;5038081;28;20147;-81
2023/12/02 09:59:19;;;;;;;30.25;16.60;;;0.60;99.90;;;;;;5052935;28;20416;-81
2023/12/02 10:02:03;;;;;;;31.17;15.98;;;0.70;99.90;;;;;;5052134;28;20032;-81
2023/12/02 10:04:55;;;;;;;27.63;15.55;;;0.70;99.90;;;;;;5069960;28;20076;-81
2023/12/02 10:07:45;;;;;;;31.02;16.52;;;0.80;99.90;;;;;;5053923;28;20033;-80
2023/12/02 10:10:17;;;;;;;29.42;15.82;;;0.90;99.90;;;;;;5036743;28;20121;-80
2023/12/02 10:13:04;;;;;;;29.48;15.93;;;0.90;99.90;;;;;;5054133;28;20037;-80
2023/12/02 10:15:35;;;;;;;29.15;15.52;;;1.00;99.90;;;;;;5034043;28;20140;-80
2023/12/02 10:18:12;;;;;;;29.07;15.83;;;1.00;99.90;;;;;;5048921;28;20112;-80
2023/12/02 10:20:40;;;;;;;32.10;17.77;;;1.10;99.90;;;;;;5051846;28;20382;-80
2023/12/02 10:23:36;;;;;;;30.42;17.45;;;1.00;99.90;;;;;;5052939;28;20566;-80
2023/12/02 10:26:06;;;;;;;28.67;16.27;;;1.00;99.90;;;;;;5051647;28;20044;-80
2023/12/02 10:28:41;;;;;;;26.88;15.57;;;1.00;99.90;;;;;;5043079;28;20040;-80
2023/12/02 10:31:10;;;;;;;28.73;15.27;;;1.10;99.90;;;;;;5052395;28;20044;-80
2023/12/02 10:34:01;;;;;;;30.00;16.58;;;1.10;99.90;;;;;;5041312;28;20073;-80
2023/12/02 10:36:30;;;;;;;30.35;16.75;;;1.10;99.90;;;;;;5050148;28;20417;-80
2023/12/02 10:39:09;;;;;;;30.33;17.23;;;1.20;99.90;;;;;;5035570;28;20386;-80
2023/12/02 10:41:49;;;;;;;29.88;15.63;;;1.20;99.90;;;;;;5052006;28;20068;-80
2023/12/02 10:44:20;;;;;;;28.27;15.30;;;1.20;99.90;;;;;;5044979;28;20044;-80
2023/12/02 10:46:48;;;;;;;27.95;15.23;;;1.30;99.90;;;;;;5052463;28;20072;-80
2023/12/02 10:49:16;;;;;;;30.92;16.67;;;1.30;99.90;;;;;;5054560;28;20048;-80
2023/12/02 10:51:43;;;;;;;30.25;15.30;;;1.30;99.90;;;;;;5052963;28;20060;-80
2023/12/02 10:54:11;;;;;;;25.27;14.73;;;1.30;99.90;;;;;;5027511;28;20049;-80
2023/12/02 10:56:39;;;;;;;29.52;16.20;;;1.40;99.90;;;;;;5050940;28;20033;-80
2023/12/02 10:59:06;;;;;;;28.10;14.80;;;1.40;99.90;;;;;;5036139;28;20052;-79
2023/12/02 11:01:58;;;;;;;28.65;14.90;;;1.40;99.90;;;;;;5036388;28;20127;-79
2023/12/02 11:04:31;;;;;;;25.75;15.00;;;1.50;99.90;;;;;;5035528;28;20041;-79
2023/12/02 11:07:03;;;;;;;;;;;1.50;99.90;;;;;;5034070;28;20128;-79
2023/12/02 11:09:34;;;;;;;28.63;15.30;;;1.50;99.90;;;;;;5041450;28;20011;-79
2023/12/02 11:12:04;;;;;;;27.05;13.48;;;1.60;99.90;;;;;;5033150;28;20041;-79
2023/12/02 11:14:40;;;;;;;27.90;15.82;;;1.60;99.90;;;;;;5052733;28;20042;-79
2023/12/02 11:17:41;;;;;;;24.08;14.32;;;1.70;99.90;;;;;;5052582;28;20045;-79
2023/12/02 11:20:25;;;;;;;26.65;14.05;;;1.70;99.90;;;;;;5045859;28;20130;-79
2023/12/02 11:23:31;;;;;;;24.35;13.68;;;1.80;99.90;;;;;;5036267;28;20052;-79
2023/12/02 11:26:18;;;;;;;24.73;12.63;;;1.90;99.90;;;;;;5050919;28;20041;-79
2023/12/02 11:29:13;;;;;;;23.83;13.93;;;1.90;99.90;;;;;;5051404;28;20125;-78
2023/12/02 11:32:02;;;;;;;24.02;14.05;;;1.90;99.90;;;;;;5051018;28;20045;-78
2023/12/02 11:35:03;;;;;;;23.75;12.77;;;2.00;99.90;;;;;;5035645;28;20557;-78
2023/12/02 11:37:32;;;;;;;25.77;13.55;;;2.00;99.90;;;;;;5019731;28;20160;-78
2023/12/02 11:40:12;;;;;;;24.45;12.27;;;2.10;99.90;;;;;;5053458;28;20516;-78
2023/12/02 11:43:07;;;;;;;23.27;12.77;;;2.10;99.90;;;;;;5027273;28;20057;-78
2023/12/02 11:45:38;;;;;;;22.35;11.93;;;2.10;99.90;;;;;;5033816;28;20044;-78
2023/12/02 11:48:19;;;;;;;22.33;11.65;;;2.10;99.90;;;;;;5036012;28;20073;-78
2023/12/02 11:51:15;;;;;;;23.10;12.35;;;2.10;99.90;;;;;;5036142;28;20032;-77
2023/12/02 11:53:52;;;;;;;21.92;11.85;;;2.10;99.90;;;;;;5043495;28;20540;-77
2023/12/02 11:56:21;;;;;;;24.45;12.90;;;2.10;99.90;;;;;;5034418;28;20458;-77
2023/12/02 11:59:16;;;;;;;27.30;13.95;;;2.20;99.90;;;;;;5036574;28;20485;-77
2023/12/02 12:02:00;;;;;;;24.77;12.60;;;2.20;99.90;;;;;;5065484;28;20051;-77
2023/12/02 12:04:48;;;;;;;20.70;11.98;;;2.10;99.90;;;;;;5039442;28;20045;-78
2023/12/02 12:07:20;;;;;;;21.52;11.70;;;2.20;99.90;;;;;;5060903;28;20062;-77
2023/12/02 12:10:07;;;;;;;24.45;12.63;;;2.20;99.90;;;;;;5035103;28;20048;-78
2023/12/02 12:12:36;;;;;;;21.27;11.85;;;2.20;99.90;;;;;;5032030;28;20150;-76
2023/12/02 12:15:03;;;;;;;22.70;12.18;;;2.20;99.90;;;;;;5045507;28;20509;-76
2023/12/02 12:17:29;;;;;;;20.40;11.75;;;2.20;99.90;;;;;;5052092;28;20033;-76
2023/12/02 12:19:59;;;;;;;21.70;11.05;;;2.20;99.90;;;;;;5052736;28;20044;-76
2023/12/02 12:22:27;;;;;;;22.10;12.27;;;2.30;99.90;;;;;;5048741;28;20094;-76
2023/12/02 12:24:53;;;;;;;21.98;11.63;;;2.30;99.90;;;;;;5052313;28;20041;-76
2023/12/02 12:27:19;;;;;;;21.02;12.20;;;2.30;99.90;;;;;;5036305;28;20044;-76
2023/12/02 12:29:55;;;;;;;21.15;11.27;;;2.30;99.90;;;;;;5049981;28;20485;-76
2023/12/02 12:32:21;;;;;;;20.38;11.02;;;2.30;99.90;;;;;;5042908;28;20459;-76
2023/12/02 12:34:53;;;;;;;19.70;10.95;;;2.30;99.90;;;;;;5035270;28;20033;-76
2023/12/02 12:37:19;;;;;;;21.35;11.82;;;2.30;99.90;;;;;;5044235;28;20041;-76
2023/12/02 12:39:45;;;;;;;19.52;11.15;;;2.40;99.90;;;;;;5050714;28;20067;-76
2023/12/02 12:42:12;;;;;;;22.52;11.73;;;2.40;99.90;;;;;;5027786;28;20482;-76